sensor_id;sensor_type;location;lat;lon;timestamp;temperature;humidity
11079;DHT22;5592;49.234;7.268;2022-09-19T00:01:13;7.30;99.90
11079;DHT22;5592;49.234;7.268;2022-09-19T00:03:40;7.20;99.90
11079;DHT22;5592;49.234;7.268;2022-09-19T00:06:08;7.10;99.90
11079;DHT22;5592;49.234;7.268;2022-09-19T00:08:39;7.10;99.90
11079;DHT22;5592;49.234;7.268;2022-09-19T00:11:05;7.00;99.90
11079;DHT22;5592;49.234;7.268;2022-09-19T00:13:36;6.90;99.90
11079;DHT22;5592;49.234;7.268;2022-09-19T00:16:02;6.80;99.90
11079;DHT22;5592;49.234;7.268;2022-09-19T00:18:28;6.70;99.90
11079;DHT22;5592;49.234;7.268;2022-09-19T00:20:54;6.60;99.90
11079;DHT22;5592;49.234;7.268;2022-09-19T00:23:20;6.60;99.90
11079;DHT22;5592;49.234;7.268;2022-09-19T00:26:10;6.60;99.90
11079;DHT22;5592;49.234;7.268;2022-09-19T00:28:36;6.60;99.90
11079;DHT22;5592;49.234;7.268;2022-09-19T00:31:03;6.50;99.90
11079;DHT22;5592;49.234;7.268;2022-09-19T00:33:31;6.40;99.90
11079;DHT22;5592;49.234;7.268;2022-09-19T00:35:59;6.30;99.90
11079;DHT22;5592;49.234;7.268;2022-09-19T00:38:27;6.30;99.90
11079;DHT22;5592;49.234;7.268;2022-09-19T00:40:54;6.20;99.90
11079;DHT22;5592;49.234;7.268;2022-09-19T00:43:20;6.00;99.90
11079;DHT22;5592;49.234;7.268;2022-09-19T00:45:47;6.00;99.90
11079;DHT22;5592;49.234;7.268;2022-09-19T00:48:17;6.00;99.90
11079;DHT22;5592;49.234;7.268;2022-09-19T00:50:48;6.10;99.90
11079;DHT22;5592;49.234;7.268;2022-09-19T00:53:20;6.10;99.90
11079;DHT22;5592;49.234;7.268;2022-09-19T00:55:49;6.10;99.90
11079;DHT22;5592;49.234;7.268;2022-09-19T00:58:23;6.10;99.90
11079;DHT22;5592;49.234;7.268;2022-09-19T01:00:52;6.00;99.90
11079;DHT22;5592;49.234;7.268;2022-09-19T01:03:18;6.00;99.90
11079;DHT22;5592;49.234;7.268;2022-09-19T01:11:47;5.90;99.90
11079;DHT22;5592;49.234;7.268;2022-09-19T01:17:24;5.70;99.90
11079;DHT22;5592;49.234;7.268;2022-09-19T01:25:59;5.70;99.90
11079;DHT22;5592;49.234;7.268;2022-09-19T01:31:03;5.60;99.90
11079;DHT22;5592;49.234;7.268;2022-09-19T01:33:49;5.70;99.90
11079;DHT22;5592;49.234;7.268;2022-09-19T01:36:20;5.80;99.90
11079;DHT22;5592;49.234;7.268;2022-09-19T01:38:48;5.80;99.90
11079;DHT22;5592;49.234;7.268;2022-09-19T01:41:15;5.70;99.90
11079;DHT22;5592;49.234;7.268;2022-09-19T01:43:41;5.60;99.90
11079;DHT22;5592;49.234;7.268;2022-09-19T01:46:34;5.50;99.90
11079;DHT22;5592;49.234;7.268;2022-09-19T01:57:39;5.20;99.90
11079;DHT22;5592;49.234;7.268;2022-09-19T02:00:13;5.10;99.90
11079;DHT22;5592;49.234;7.268;2022-09-19T02:02:47;5.10;99.90
11079;DHT22;5592;49.234;7.268;2022-09-19T02:06:34;5.00;99.90
11079;DHT22;5592;49.234;7.268;2022-09-19T02:08:32;5.00;99.90
11079;DHT22;5592;49.234;7.268;2022-09-19T02:11:07;5.00;99.90
11079;DHT22;5592;49.234;7.268;2022-09-19T02:13:37;5.00;99.90
11079;DHT22;5592;49.234;7.268;2022-09-19T02:16:23;5.00;99.90
11079;DHT22;5592;49.234;7.268;2022-09-19T02:18:56;5.00;99.90
11079;DHT22;5592;49.234;7.268;2022-09-19T02:21:33;5.00;99.90
11079;DHT22;5592;49.234;7.268;2022-09-19T02:24:03;5.00;99.90
11079;DHT22;5592;49.234;7.268;2022-09-19T02:26:33;4.90;99.90
11079;DHT22;5592;49.234;7.268;2022-09-19T02:29:00;4.90;99.90
11079;DHT22;5592;49.234;7.268;2022-09-19T02:31:26;4.90;99.90
11079;DHT22;5592;49.234;7.268;2022-09-19T02:33:59;4.80;99.90
11079;DHT22;5592;49.234;7.268;2022-09-19T02:36:45;4.80;99.90
11079;DHT22;5592;49.234;7.268;2022-09-19T02:42:27;4.70;99.90
11079;DHT22;5592;49.234;7.268;2022-09-19T02:45:04;4.70;99.90
11079;DHT22;5592;49.234;7.268;2022-09-19T02:50:45;4.70;99.90
11079;DHT22;5592;49.234;7.268;2022-09-19T02:53:19;4.80;99.90
11079;DHT22;5592;49.234;7.268;2022-09-19T02:55:49;4.90;99.90
11079;DHT22;5592;49.234;7.268;2022-09-19T02:58:17;4.90;99.90
11079;DHT22;5592;49.234;7.268;2022-09-19T03:00:51;4.80;99.90
11079;DHT22;5592;49.234;7.268;2022-09-19T03:03:31;4.80;99.90
11079;DHT22;5592;49.234;7.268;2022-09-19T03:06:20;4.70;99.90
11079;DHT22;5592;49.234;7.268;2022-09-19T03:08:48;4.80;99.90
11079;DHT22;5592;49.234;7.268;2022-09-19T03:11:18;4.90;99.90
11079;DHT22;5592;49.234;7.268;2022-09-19T03:13:45;4.90;99.90
11079;DHT22;5592;49.234;7.268;2022-09-19T03:16:12;5.00;99.90
11079;DHT22;5592;49.234;7.268;2022-09-19T03:18:42;5.00;99.90
11079;DHT22;5592;49.234;7.268;2022-09-19T03:21:10;5.00;99.90
11079;DHT22;5592;49.234;7.268;2022-09-19T03:23:41;5.00;99.90
11079;DHT22;5592;49.234;7.268;2022-09-19T03:26:16;5.00;99.90
11079;DHT22;5592;49.234;7.268;2022-09-19T03:28:42;5.10;99.90
11079;DHT22;5592;49.234;7.268;2022-09-19T03:31:08;5.10;99.90
11079;DHT22;5592;49.234;7.268;2022-09-19T03:33:35;5.10;99.90
11079;DHT22;5592;49.234;7.268;2022-09-19T03:36:02;5.10;99.90
11079;DHT22;5592;49.234;7.268;2022-09-19T03:38:37;5.20;99.90
11079;DHT22;5592;49.234;7.268;2022-09-19T03:41:06;5.20;99.90
11079;DHT22;5592;49.234;7.268;2022-09-19T03:43:31;5.20;99.90
11079;DHT22;5592;49.234;7.268;2022-09-19T03:45:57;5.10;99.90
11079;DHT22;5592;49.234;7.268;2022-09-19T03:48:23;5.00;99.90
11079;DHT22;5592;49.234;7.268;2022-09-19T03:50:49;5.00;99.90
11079;DHT22;5592;49.234;7.268;2022-09-19T03:53:14;5.00;99.90
11079;DHT22;5592;49.234;7.268;2022-09-19T03:55:41;5.00;99.90
11079;DHT22;5592;49.234;7.268;2022-09-19T03:58:08;5.00;99.90
11079;DHT22;5592;49.234;7.268;2022-09-19T04:00:35;5.20;99.90
11079;DHT22;5592;49.234;7.268;2022-09-19T04:03:00;5.20;99.90
11079;DHT22;5592;49.234;7.268;2022-09-19T04:05:26;5.20;99.90
11079;DHT22;5592;49.234;7.268;2022-09-19T04:07:51;5.20;99.90
11079;DHT22;5592;49.234;7.268;2022-09-19T04:10:17;5.20;99.90
11079;DHT22;5592;49.234;7.268;2022-09-19T04:12:43;5.20;99.90
11079;DHT22;5592;49.234;7.268;2022-09-19T04:15:09;5.20;99.90
11079;DHT22;5592;49.234;7.268;2022-09-19T04:17:34;5.20;99.90
11079;DHT22;5592;49.234;7.268;2022-09-19T04:20:00;5.10;99.90
11079;DHT22;5592;49.234;7.268;2022-09-19T04:22:26;5.10;99.90
11079;DHT22;5592;49.234;7.268;2022-09-19T04:24:51;5.00;99.90
11079;DHT22;5592;49.234;7.268;2022-09-19T04:27:18;4.90;99.90
11079;DHT22;5592;49.234;7.268;2022-09-19T04:29:43;4.80;99.90
11079;DHT22;5592;49.234;7.268;2022-09-19T04:32:10;4.70;99.90
11079;DHT22;5592;49.234;7.268;2022-09-19T04:34:35;4.60;99.90
11079;DHT22;5592;49.234;7.268;2022-09-19T04:37:02;4.60;99.90
11079;DHT22;5592;49.234;7.268;2022-09-19T04:39:32;4.50;99.90
11079;DHT22;5592;49.234;7.268;2022-09-19T04:41:58;4.50;99.90
11079;DHT22;5592;49.234;7.268;2022-09-19T04:44:26;4.40;99.90
11079;DHT22;5592;49.234;7.268;2022-09-19T04:46:55;4.40;99.90
11079;DHT22;5592;49.234;7.268;2022-09-19T04:49:20;4.40;99.90
11079;DHT22;5592;49.234;7.268;2022-09-19T04:51:46;4.50;99.90
11079;DHT22;5592;49.234;7.268;2022-09-19T04:54:12;4.50;99.90
11079;DHT22;5592;49.234;7.268;2022-09-19T04:56:40;4.40;99.90
11079;DHT22;5592;49.234;7.268;2022-09-19T04:59:09;4.40;99.90
11079;DHT22;5592;49.234;7.268;2022-09-19T05:01:36;4.40;99.90
11079;DHT22;5592;49.234;7.268;2022-09-19T05:04:02;4.50;99.90
11079;DHT22;5592;49.234;7.268;2022-09-19T05:06:30;4.60;99.90
11079;DHT22;5592;49.234;7.268;2022-09-19T05:08:58;4.80;99.90
11079;DHT22;5592;49.234;7.268;2022-09-19T05:11:24;4.80;99.90
11079;DHT22;5592;49.234;7.268;2022-09-19T05:13:50;4.80;99.90
11079;DHT22;5592;49.234;7.268;2022-09-19T05:16:18;4.80;99.90
11079;DHT22;5592;49.234;7.268;2022-09-19T05:18:44;4.80;99.90
11079;DHT22;5592;49.234;7.268;2022-09-19T05:21:12;4.80;99.90
11079;DHT22;5592;49.234;7.268;2022-09-19T05:23:38;4.80;99.90
11079;DHT22;5592;49.234;7.268;2022-09-19T05:26:06;4.80;99.90
11079;DHT22;5592;49.234;7.268;2022-09-19T05:28:33;4.80;99.90
11079;DHT22;5592;49.234;7.268;2022-09-19T05:30:58;4.90;99.90
11079;DHT22;5592;49.234;7.268;2022-09-19T05:33:29;5.00;99.90
11079;DHT22;5592;49.234;7.268;2022-09-19T05:35:56;5.10;99.90
11079;DHT22;5592;49.234;7.268;2022-09-19T05:38:24;5.10;99.90
11079;DHT22;5592;49.234;7.268;2022-09-19T05:40:54;5.20;99.90
11079;DHT22;5592;49.234;7.268;2022-09-19T05:43:21;5.40;99.90
11079;DHT22;5592;49.234;7.268;2022-09-19T05:45:47;5.60;99.90
11079;DHT22;5592;49.234;7.268;2022-09-19T05:48:14;5.70;99.90
11079;DHT22;5592;49.234;7.268;2022-09-19T05:50:43;5.80;99.90
11079;DHT22;5592;49.234;7.268;2022-09-19T05:53:10;5.90;99.90
11079;DHT22;5592;49.234;7.268;2022-09-19T05:55:54;6.00;99.90
11079;DHT22;5592;49.234;7.268;2022-09-19T05:58:20;6.10;99.90
11079;DHT22;5592;49.234;7.268;2022-09-19T06:00:46;6.30;99.90
11079;DHT22;5592;49.234;7.268;2022-09-19T06:03:14;6.30;99.90
11079;DHT22;5592;49.234;7.268;2022-09-19T06:05:42;6.50;99.90
11079;DHT22;5592;49.234;7.268;2022-09-19T06:08:10;6.70;99.90
11079;DHT22;5592;49.234;7.268;2022-09-19T06:10:38;6.80;99.90
11079;DHT22;5592;49.234;7.268;2022-09-19T06:13:05;7.10;99.90
11079;DHT22;5592;49.234;7.268;2022-09-19T06:15:31;7.40;99.90
11079;DHT22;5592;49.234;7.268;2022-09-19T06:17:58;8.00;99.90
11079;DHT22;5592;49.234;7.268;2022-09-19T06:20:24;8.60;99.90
11079;DHT22;5592;49.234;7.268;2022-09-19T06:22:56;9.70;99.90
11079;DHT22;5592;49.234;7.268;2022-09-19T06:25:22;10.80;99.90
11079;DHT22;5592;49.234;7.268;2022-09-19T06:27:55;11.60;99.90
11079;DHT22;5592;49.234;7.268;2022-09-19T06:30:21;12.10;99.90
11079;DHT22;5592;49.234;7.268;2022-09-19T06:32:48;12.90;99.90
11079;DHT22;5592;49.234;7.268;2022-09-19T06:35:18;14.10;99.90
11079;DHT22;5592;49.234;7.268;2022-09-19T06:37:43;15.60;99.90
11079;DHT22;5592;49.234;7.268;2022-09-19T06:40:09;16.90;99.90
11079;DHT22;5592;49.234;7.268;2022-09-19T06:42:39;17.80;99.90
11079;DHT22;5592;49.234;7.268;2022-09-19T06:45:05;18.50;99.90
11079;DHT22;5592;49.234;7.268;2022-09-19T06:47:32;19.30;99.90
11079;DHT22;5592;49.234;7.268;2022-09-19T06:49:58;19.80;99.90
11079;DHT22;5592;49.234;7.268;2022-09-19T06:52:27;20.00;99.90
11079;DHT22;5592;49.234;7.268;2022-09-19T06:54:54;20.80;99.90
11079;DHT22;5592;49.234;7.268;2022-09-19T06:57:20;21.30;99.90
11079;DHT22;5592;49.234;7.268;2022-09-19T06:59:45;21.50;99.90
11079;DHT22;5592;49.234;7.268;2022-09-19T07:02:11;21.90;99.90
11079;DHT22;5592;49.234;7.268;2022-09-19T07:04:37;22.00;99.90
11079;DHT22;5592;49.234;7.268;2022-09-19T07:07:04;22.00;99.90
11079;DHT22;5592;49.234;7.268;2022-09-19T07:09:30;22.10;99.90
11079;DHT22;5592;49.234;7.268;2022-09-19T07:11:56;22.20;99.90
11079;DHT22;5592;49.234;7.268;2022-09-19T07:14:25;22.50;99.90
11079;DHT22;5592;49.234;7.268;2022-09-19T07:16:50;23.10;99.90
11079;DHT22;5592;49.234;7.268;2022-09-19T07:19:16;23.50;99.90
11079;DHT22;5592;49.234;7.268;2022-09-19T07:21:42;23.80;99.90
11079;DHT22;5592;49.234;7.268;2022-09-19T07:24:08;24.30;99.90
11079;DHT22;5592;49.234;7.268;2022-09-19T07:26:34;24.30;99.90
11079;DHT22;5592;49.234;7.268;2022-09-19T07:29:00;24.40;99.90
11079;DHT22;5592;49.234;7.268;2022-09-19T07:31:29;24.60;99.90
11079;DHT22;5592;49.234;7.268;2022-09-19T07:33:55;24.30;99.90
11079;DHT22;5592;49.234;7.268;2022-09-19T07:36:21;24.70;99.90
11079;DHT22;5592;49.234;7.268;2022-09-19T07:38:50;25.10;99.90
11079;DHT22;5592;49.234;7.268;2022-09-19T07:41:17;25.00;98.80
11079;DHT22;5592;49.234;7.268;2022-09-19T07:43:47;24.60;99.20
11079;DHT22;5592;49.234;7.268;2022-09-19T07:46:13;25.00;98.70
11079;DHT22;5592;49.234;7.268;2022-09-19T07:48:41;25.00;98.90
11079;DHT22;5592;49.234;7.268;2022-09-19T07:51:07;24.60;97.80
11079;DHT22;5592;49.234;7.268;2022-09-19T07:53:34;23.60;98.20
11079;DHT22;5592;49.234;7.268;2022-09-19T07:56:00;23.10;99.90
11079;DHT22;5592;49.234;7.268;2022-09-19T07:58:27;23.10;99.90
11079;DHT22;5592;49.234;7.268;2022-09-19T08:00:53;23.20;99.90
11079;DHT22;5592;49.234;7.268;2022-09-19T08:03:20;23.40;99.90
11079;DHT22;5592;49.234;7.268;2022-09-19T08:05:49;23.00;99.90
11079;DHT22;5592;49.234;7.268;2022-09-19T08:08:16;22.90;99.90
11079;DHT22;5592;49.234;7.268;2022-09-19T08:10:43;22.20;99.90
11079;DHT22;5592;49.234;7.268;2022-09-19T08:13:10;21.60;99.90
11079;DHT22;5592;49.234;7.268;2022-09-19T08:15:37;21.10;99.90
11079;DHT22;5592;49.234;7.268;2022-09-19T08:18:08;20.50;99.90
11079;DHT22;5592;49.234;7.268;2022-09-19T08:20:35;21.00;99.90
11079;DHT22;5592;49.234;7.268;2022-09-19T08:23:07;21.40;99.90
11079;DHT22;5592;49.234;7.268;2022-09-19T08:25:37;22.90;99.90
11079;DHT22;5592;49.234;7.268;2022-09-19T08:28:09;23.80;99.90
11079;DHT22;5592;49.234;7.268;2022-09-19T08:30:35;24.30;99.90
11079;DHT22;5592;49.234;7.268;2022-09-19T08:33:01;24.30;99.90
11079;DHT22;5592;49.234;7.268;2022-09-19T08:35:31;23.70;99.90
11079;DHT22;5592;49.234;7.268;2022-09-19T08:38:04;23.20;99.90
11079;DHT22;5592;49.234;7.268;2022-09-19T08:46:32;25.70;99.90
11079;DHT22;5592;49.234;7.268;2022-09-19T08:51:38;25.20;96.70
11079;DHT22;5592;49.234;7.268;2022-09-19T08:54:17;24.70;97.70
11079;DHT22;5592;49.234;7.268;2022-09-19T08:56:44;24.10;98.20
11079;DHT22;5592;49.234;7.268;2022-09-19T08:59:15;24.60;99.90
11079;DHT22;5592;49.234;7.268;2022-09-19T09:01:42;24.90;97.70
11079;DHT22;5592;49.234;7.268;2022-09-19T09:07:12;24.80;98.30
11079;DHT22;5592;49.234;7.268;2022-09-19T09:18:09;23.50;98.50
11079;DHT22;5592;49.234;7.268;2022-09-19T09:20:48;22.70;98.70
11079;DHT22;5592;49.234;7.268;2022-09-19T09:23:21;22.50;99.90
11079;DHT22;5592;49.234;7.268;2022-09-19T09:25:49;22.30;99.90
11079;DHT22;5592;49.234;7.268;2022-09-19T09:28:26;22.90;99.90
11079;DHT22;5592;49.234;7.268;2022-09-19T09:31:52;23.30;98.80
11079;DHT22;5592;49.234;7.268;2022-09-19T09:34:09;23.50;97.50
11079;DHT22;5592;49.234;7.268;2022-09-19T09:36:52;23.40;99.20
11079;DHT22;5592;49.234;7.268;2022-09-19T09:41:52;23.70;98.20
11079;DHT22;5592;49.234;7.268;2022-09-19T09:44:30;23.00;97.60
11079;DHT22;5592;49.234;7.268;2022-09-19T09:47:17;22.20;99.00
11079;DHT22;5592;49.234;7.268;2022-09-19T09:49:47;21.50;99.90
11079;DHT22;5592;49.234;7.268;2022-09-19T09:52:38;21.00;99.90
11079;DHT22;5592;49.234;7.268;2022-09-19T10:00:42;19.70;99.90
11079;DHT22;5592;49.234;7.268;2022-09-19T10:04:02;19.50;99.90
11079;DHT22;5592;49.234;7.268;2022-09-19T10:06:38;19.40;99.90
11079;DHT22;5592;49.234;7.268;2022-09-19T10:09:16;19.50;99.90
11079;DHT22;5592;49.234;7.268;2022-09-19T10:11:51;19.50;99.90
11079;DHT22;5592;49.234;7.268;2022-09-19T10:14:21;19.70;99.90
11079;DHT22;5592;49.234;7.268;2022-09-19T10:16:50;19.40;99.90
11079;DHT22;5592;49.234;7.268;2022-09-19T10:21:55;19.10;99.90
11079;DHT22;5592;49.234;7.268;2022-09-19T10:30:01;18.60;99.90
11079;DHT22;5592;49.234;7.268;2022-09-19T10:32:34;18.10;99.90
11079;DHT22;5592;49.234;7.268;2022-09-19T10:35:27;17.70;99.90
11079;DHT22;5592;49.234;7.268;2022-09-19T10:40:32;17.30;99.90
11079;DHT22;5592;49.234;7.268;2022-09-19T10:42:59;17.40;99.90
11079;DHT22;5592;49.234;7.268;2022-09-19T10:45:32;17.60;99.90
11079;DHT22;5592;49.234;7.268;2022-09-19T10:48:21;17.80;99.90
11079;DHT22;5592;49.234;7.268;2022-09-19T10:50:49;18.10;99.90
11079;DHT22;5592;49.234;7.268;2022-09-19T10:53:21;18.30;99.90
11079;DHT22;5592;49.234;7.268;2022-09-19T10:55:50;18.50;99.90
11079;DHT22;5592;49.234;7.268;2022-09-19T10:58:20;19.40;99.90
11079;DHT22;5592;49.234;7.268;2022-09-19T11:01:21;19.60;99.90
11079;DHT22;5592;49.234;7.268;2022-09-19T11:04:04;20.10;99.90
11079;DHT22;5592;49.234;7.268;2022-09-19T11:06:32;20.60;99.90
11079;DHT22;5592;49.234;7.268;2022-09-19T11:09:01;20.50;99.90
11079;DHT22;5592;49.234;7.268;2022-09-19T11:11:36;20.20;99.90
11079;DHT22;5592;49.234;7.268;2022-09-19T11:14:30;19.80;99.90
11079;DHT22;5592;49.234;7.268;2022-09-19T11:19:35;19.10;99.90
11079;DHT22;5592;49.234;7.268;2022-09-19T11:24:51;18.40;99.90
11079;DHT22;5592;49.234;7.268;2022-09-19T11:30:37;19.10;99.90
11079;DHT22;5592;49.234;7.268;2022-09-19T11:41:21;19.70;99.90
11079;DHT22;5592;49.234;7.268;2022-09-19T11:44:08;19.20;99.90
11079;DHT22;5592;49.234;7.268;2022-09-19T11:46:58;18.90;99.90
11079;DHT22;5592;49.234;7.268;2022-09-19T11:49:37;19.30;99.90
11079;DHT22;5592;49.234;7.268;2022-09-19T12:00:58;20.30;99.90
11079;DHT22;5592;49.234;7.268;2022-09-19T12:03:44;20.30;99.90
11079;DHT22;5592;49.234;7.268;2022-09-19T12:06:25;20.00;99.90
11079;DHT22;5592;49.234;7.268;2022-09-19T12:09:02;19.80;99.90
11079;DHT22;5592;49.234;7.268;2022-09-19T12:11:49;19.70;99.90
11079;DHT22;5592;49.234;7.268;2022-09-19T12:14:28;19.40;99.90
11079;DHT22;5592;49.234;7.268;2022-09-19T12:17:17;19.00;99.90
11079;DHT22;5592;49.234;7.268;2022-09-19T12:19:47;19.00;99.90
11079;DHT22;5592;49.234;7.268;2022-09-19T12:22:20;19.30;99.90
11079;DHT22;5592;49.234;7.268;2022-09-19T12:24:52;19.40;99.90
11079;DHT22;5592;49.234;7.268;2022-09-19T12:32:52;18.70;99.90
11079;DHT22;5592;49.234;7.268;2022-09-19T12:35:51;18.20;99.90
11079;DHT22;5592;49.234;7.268;2022-09-19T12:38:41;17.80;99.90
11079;DHT22;5592;49.234;7.268;2022-09-19T12:44:04;17.80;99.90
11079;DHT22;5592;49.234;7.268;2022-09-19T12:46:41;18.00;99.90
11079;DHT22;5592;49.234;7.268;2022-09-19T12:52:26;18.70;99.90
11079;DHT22;5592;49.234;7.268;2022-09-19T12:55:12;18.70;99.90
11079;DHT22;5592;49.234;7.268;2022-09-19T12:58:04;18.80;99.90
11079;DHT22;5592;49.234;7.268;2022-09-19T13:00:36;18.90;99.90
11079;DHT22;5592;49.234;7.268;2022-09-19T13:03:53;18.60;99.90
11079;DHT22;5592;49.234;7.268;2022-09-19T13:06:27;18.50;99.90
11079;DHT22;5592;49.234;7.268;2022-09-19T13:09:21;18.20;99.90
11079;DHT22;5592;49.234;7.268;2022-09-19T13:11:58;17.90;99.90
11079;DHT22;5592;49.234;7.268;2022-09-19T13:17:12;17.60;99.90
11079;DHT22;5592;49.234;7.268;2022-09-19T13:19:57;17.60;99.90
11079;DHT22;5592;49.234;7.268;2022-09-19T13:22:50;17.60;99.90
11079;DHT22;5592;49.234;7.268;2022-09-19T13:25:37;17.50;99.90
11079;DHT22;5592;49.234;7.268;2022-09-19T13:33:51;17.60;99.90
11079;DHT22;5592;49.234;7.268;2022-09-19T13:38:51;17.50;99.90
11079;DHT22;5592;49.234;7.268;2022-09-19T13:41:39;17.50;99.90
11079;DHT22;5592;49.234;7.268;2022-09-19T13:47:03;17.80;99.90
11079;DHT22;5592;49.234;7.268;2022-09-19T13:49:47;18.10;99.90
11079;DHT22;5592;49.234;7.268;2022-09-19T13:52:27;18.20;99.90
11079;DHT22;5592;49.234;7.268;2022-09-19T13:57:39;18.30;99.90
11079;DHT22;5592;49.234;7.268;2022-09-19T14:00:30;18.50;99.90
11079;DHT22;5592;49.234;7.268;2022-09-19T14:03:27;18.50;99.90
11079;DHT22;5592;49.234;7.268;2022-09-19T14:06:17;18.40;99.90
11079;DHT22;5592;49.234;7.268;2022-09-19T14:09:12;18.10;99.90
11079;DHT22;5592;49.234;7.268;2022-09-19T14:11:33;18.00;99.90
11079;DHT22;5592;49.234;7.268;2022-09-19T14:13:59;17.90;99.90
11079;DHT22;5592;49.234;7.268;2022-09-19T14:16:32;17.90;99.90
11079;DHT22;5592;49.234;7.268;2022-09-19T14:19:02;18.00;99.90
11079;DHT22;5592;49.234;7.268;2022-09-19T14:24:10;18.40;99.90
11079;DHT22;5592;49.234;7.268;2022-09-19T14:26:52;18.50;99.90
11079;DHT22;5592;49.234;7.268;2022-09-19T14:29:57;18.40;99.90
11079;DHT22;5592;49.234;7.268;2022-09-19T14:32:40;18.40;99.90
11079;DHT22;5592;49.234;7.268;2022-09-19T14:35:34;18.50;99.90
11079;DHT22;5592;49.234;7.268;2022-09-19T14:38:23;18.60;99.90
11079;DHT22;5592;49.234;7.268;2022-09-19T14:41:27;18.50;99.90
11079;DHT22;5592;49.234;7.268;2022-09-19T14:51:38;18.60;99.90
11079;DHT22;5592;49.234;7.268;2022-09-19T14:56:57;18.90;99.90
11079;DHT22;5592;49.234;7.268;2022-09-19T14:59:25;19.00;99.90
11079;DHT22;5592;49.234;7.268;2022-09-19T15:01:53;18.70;99.90
11079;DHT22;5592;49.234;7.268;2022-09-19T15:04:22;18.60;99.90
11079;DHT22;5592;49.234;7.268;2022-09-19T15:06:51;18.30;99.90
11079;DHT22;5592;49.234;7.268;2022-09-19T15:09:39;18.20;99.90
11079;DHT22;5592;49.234;7.268;2022-09-19T15:12:30;18.10;99.90
11079;DHT22;5592;49.234;7.268;2022-09-19T15:14:57;17.90;99.90
11079;DHT22;5592;49.234;7.268;2022-09-19T15:17:31;17.40;99.90
11079;DHT22;5592;49.234;7.268;2022-09-19T15:20:17;17.40;99.90
11079;DHT22;5592;49.234;7.268;2022-09-19T15:22:52;17.30;99.90
11079;DHT22;5592;49.234;7.268;2022-09-19T15:25:38;17.30;99.90
11079;DHT22;5592;49.234;7.268;2022-09-19T15:28:26;17.30;99.90
11079;DHT22;5592;49.234;7.268;2022-09-19T15:30:52;17.30;99.90
11079;DHT22;5592;49.234;7.268;2022-09-19T15:33:22;17.20;99.90
11079;DHT22;5592;49.234;7.268;2022-09-19T15:35:51;17.10;99.90
11079;DHT22;5592;49.234;7.268;2022-09-19T15:38:34;16.80;99.90
11079;DHT22;5592;49.234;7.268;2022-09-19T15:41:04;16.70;99.90
11079;DHT22;5592;49.234;7.268;2022-09-19T15:43:30;16.70;99.90
11079;DHT22;5592;49.234;7.268;2022-09-19T15:48:58;16.60;99.90
11079;DHT22;5592;49.234;7.268;2022-09-19T15:51:33;16.60;99.90
11079;DHT22;5592;49.234;7.268;2022-09-19T15:54:16;16.50;99.90
11079;DHT22;5592;49.234;7.268;2022-09-19T15:56:48;16.50;99.90
11079;DHT22;5592;49.234;7.268;2022-09-19T15:59:23;16.50;99.90
11079;DHT22;5592;49.234;7.268;2022-09-19T16:01:57;16.40;99.90
11079;DHT22;5592;49.234;7.268;2022-09-19T16:04:33;16.20;99.90
11079;DHT22;5592;49.234;7.268;2022-09-19T16:06:59;16.10;99.90
11079;DHT22;5592;49.234;7.268;2022-09-19T16:09:48;15.90;99.90
11079;DHT22;5592;49.234;7.268;2022-09-19T16:14:56;15.50;99.90
11079;DHT22;5592;49.234;7.268;2022-09-19T16:17:23;15.40;99.90
11079;DHT22;5592;49.234;7.268;2022-09-19T16:19:51;15.10;99.90
11079;DHT22;5592;49.234;7.268;2022-09-19T16:22:21;15.00;99.90
11079;DHT22;5592;49.234;7.268;2022-09-19T16:24:51;14.80;99.90
11079;DHT22;5592;49.234;7.268;2022-09-19T16:27:24;14.60;99.90
11079;DHT22;5592;49.234;7.268;2022-09-19T16:29:51;14.50;99.90
11079;DHT22;5592;49.234;7.268;2022-09-19T16:32:19;14.40;99.90
11079;DHT22;5592;49.234;7.268;2022-09-19T16:34:53;14.20;99.90
11079;DHT22;5592;49.234;7.268;2022-09-19T16:37:28;14.20;99.90
11079;DHT22;5592;49.234;7.268;2022-09-19T16:39:55;14.00;99.90
11079;DHT22;5592;49.234;7.268;2022-09-19T16:42:28;13.90;99.90
11079;DHT22;5592;49.234;7.268;2022-09-19T16:45:17;13.90;99.90
11079;DHT22;5592;49.234;7.268;2022-09-19T16:47:44;13.90;99.90
11079;DHT22;5592;49.234;7.268;2022-09-19T16:50:11;13.80;99.90
11079;DHT22;5592;49.234;7.268;2022-09-19T16:52:37;13.70;99.90
11079;DHT22;5592;49.234;7.268;2022-09-19T16:55:19;13.70;99.90
11079;DHT22;5592;49.234;7.268;2022-09-19T16:57:48;13.60;99.90
11079;DHT22;5592;49.234;7.268;2022-09-19T17:00:15;13.50;99.90
11079;DHT22;5592;49.234;7.268;2022-09-19T17:02:41;13.40;99.90
11079;DHT22;5592;49.234;7.268;2022-09-19T17:05:19;13.30;99.90
11079;DHT22;5592;49.234;7.268;2022-09-19T17:07:49;13.20;99.90
11079;DHT22;5592;49.234;7.268;2022-09-19T17:10:15;13.00;99.90
11079;DHT22;5592;49.234;7.268;2022-09-19T17:12:41;12.90;99.90
11079;DHT22;5592;49.234;7.268;2022-09-19T17:15:33;12.70;99.90
11079;DHT22;5592;49.234;7.268;2022-09-19T17:18:00;12.50;99.90
11079;DHT22;5592;49.234;7.268;2022-09-19T17:20:25;12.40;99.90
11079;DHT22;5592;49.234;7.268;2022-09-19T17:22:52;12.30;99.90
11079;DHT22;5592;49.234;7.268;2022-09-19T17:25:39;12.10;99.90
11079;DHT22;5592;49.234;7.268;2022-09-19T17:28:10;12.00;99.90
11079;DHT22;5592;49.234;7.268;2022-09-19T17:30:36;11.80;99.90
11079;DHT22;5592;49.234;7.268;2022-09-19T17:33:02;11.60;99.90
11079;DHT22;5592;49.234;7.268;2022-09-19T17:35:27;11.50;99.90
11079;DHT22;5592;49.234;7.268;2022-09-19T17:37:53;11.30;99.90
11079;DHT22;5592;49.234;7.268;2022-09-19T17:40:19;11.20;99.90
11079;DHT22;5592;49.234;7.268;2022-09-19T17:42:46;11.10;99.90
11079;DHT22;5592;49.234;7.268;2022-09-19T17:45:14;11.00;99.90
11079;DHT22;5592;49.234;7.268;2022-09-19T17:47:42;11.00;99.90
11079;DHT22;5592;49.234;7.268;2022-09-19T17:50:08;11.00;99.90
11079;DHT22;5592;49.234;7.268;2022-09-19T17:52:35;10.90;99.90
11079;DHT22;5592;49.234;7.268;2022-09-19T17:55:01;10.70;99.90
11079;DHT22;5592;49.234;7.268;2022-09-19T17:57:26;10.60;99.90
11079;DHT22;5592;49.234;7.268;2022-09-19T17:59:52;10.40;99.90
11079;DHT22;5592;49.234;7.268;2022-09-19T18:02:18;10.30;99.90
11079;DHT22;5592;49.234;7.268;2022-09-19T18:05:02;10.20;99.90
11079;DHT22;5592;49.234;7.268;2022-09-19T18:07:31;10.10;99.90
11079;DHT22;5592;49.234;7.268;2022-09-19T18:09:59;9.90;99.90
11079;DHT22;5592;49.234;7.268;2022-09-19T18:12:26;9.80;99.90
11079;DHT22;5592;49.234;7.268;2022-09-19T18:14:52;9.60;99.90
11079;DHT22;5592;49.234;7.268;2022-09-19T18:17:17;9.50;99.90
11079;DHT22;5592;49.234;7.268;2022-09-19T18:19:48;9.40;99.90
11079;DHT22;5592;49.234;7.268;2022-09-19T18:22:13;9.30;99.90
11079;DHT22;5592;49.234;7.268;2022-09-19T18:24:39;9.20;99.90
11079;DHT22;5592;49.234;7.268;2022-09-19T18:27:06;9.10;99.90
11079;DHT22;5592;49.234;7.268;2022-09-19T18:29:32;9.00;99.90
11079;DHT22;5592;49.234;7.268;2022-09-19T18:31:59;8.90;99.90
11079;DHT22;5592;49.234;7.268;2022-09-19T18:34:25;8.80;99.90
11079;DHT22;5592;49.234;7.268;2022-09-19T18:36:51;8.70;99.90
11079;DHT22;5592;49.234;7.268;2022-09-19T18:39:17;8.60;99.90
11079;DHT22;5592;49.234;7.268;2022-09-19T18:41:42;8.60;99.90
11079;DHT22;5592;49.234;7.268;2022-09-19T18:44:08;8.50;99.90
11079;DHT22;5592;49.234;7.268;2022-09-19T18:46:33;8.50;99.90